Ironwood, MI (49938)

1:25 AM CST on February 13, 2016 (GMT -0600)
North of US 2 | | Change Station
CLOSE
Current Station
Personal Weather Station
Location: Ironwood, MI
Elevation: 1490 ft
Nearby Weather Stations
Active Advisory: Wind Chill Advisory

Elev 1490 ft 46.47 °N, 90.15 °W | Updated 13 seconds ago

Overcast
Overcast
-0.8 °F
Feels Like -1 °F
N
2.0
Wind Variable Wind from West
Gusts 4.9 mph

Today
High -- | Low -- °F
--% Chance of Precip.
Yesterday
High -- | Low -- °F
Precip. -- in
Pressure 30.41 in
Visibility 1.2 miles
Clouds Overcast 1000 ft
Windchill -1 °F
Dew Point -8 °F
Humidity 69%
Rainfall 0.00 in
Snow Depth Not available.
7:07 AM 5:22 PM
Waxing Crescent, 28% visible
METAR KIWD 130715Z AUTO 31012KT 1 1/4SM OVC010 M17/M19 A3041 RMK AO1
Pressure 30.41 in
Visibility 1.2 miles
Clouds Overcast 1000 ft
Windchill -1 °F
Dew Point -8 °F
Humidity 69%
Rainfall 0.00 in
Snow Depth Not available.
7:07 AM 5:22 PM
Waxing Crescent, 28% visible
METAR KIWD 130715Z AUTO 31012KT 1 1/4SM OVC010 M17/M19 A3041 RMK AO1

10-Day Weather Forecast

Almanac

Astronomy

Feb. 13, 2016 Rise Set
Actual Time
Civil Twilight
Nautical Twilight
Astronomical Twilight
Moon
Length of Visible Light
Length of Day
Tomorrow will be .
, % of the Moon is Illuminated

Today's Extremes

State Highs State Lows

Community

WunderPhotos

Upload Photos

1,892,526 photos uploaded!

WunderBlog® & News

Nearby

Air Quality

  Air Quality AQ Index Pollutant
Not available.

Snow Depth

Station Depth Elevation

Earthquake Activity

City Distance Mag. Time & Date
Minimum magnitude displayed is 2.5.

Coastal Water Temperatures

Place Temperature

Stations

Nearby Weather Stations

Station Location Temp. Windchill Dew Point Humidity Wind Precip. Elev Updated Type
                   

Watches & Warnings

Wind Chill Advisory
Issued: 7:47 PM CST Feb. 12, 2016 – National Weather Service

... Lake effect Snow Advisory remains in effect until 9 PM CST
this evening...
... Wind Chill Advisory remains in effect until 9 am CST
Saturday...

Hazardous weather...

* light lake effect snow and gusty winds up to 25 mph are leading to
   widespread blowing snow and reduced visibilities below a half
   mile at times. The worst conditions are over western portions of
   Gogebic County. These conditions will persist through this
   evening.

* Wind chill readings will be as low as 25 below zero through
   tonight.

Impacts...

* snow covered roads will continue to be slippery.

* Blowing snow will reduce visibilities to one half mile or
   less at times.

* The very low wind chills will cause frostbite in as little as
   15 minutes to exposed skin.

Precautionary/preparedness actions...

* a lake effect Snow Advisory Means Lake effect snow is
   forecast that will make travel difficult in some areas.

* A Wind Chill Advisory means that very cold air and strong
   winds will combine to generate low wind chills.

* Prepare... plan... and stay informed. Visit www.Weather.Gov/MQT